Ana Sayfa
METAR-TAF:

METAR-TAF

Havaalanları :

Laconia Municipal Airport

Laconia, New Hampshire, Amerika Birleşik Devletleri

Enlem: 43-34N, Boylam: 071-25W, yükseklik: 166 m

Güncel hava durumu gözlemi

Rapor saat 23:56 UTC de 1 saat ve 3 dakika önce yapıldı.
Rüzgar güneybatıdan 5 kt
Sıcaklık 22°C
Nem 78%
Basınç 1009 hPa
Görüş mesafesi: 16.1 km
11000 ft yükseklikte az bulutlu

METAR: KLCI 192356Z AUTO 22005KT 10SM FEW110 22/18 A2980 RMK AO2 SLP090 T02170183 10267 20217 53000

Saat: 20:59 (00:59 UTC)


TAF: eksik

4.000'den fazla havaalanı için hava durumu gözlemleri ve tahminleri (METAR ve TAF raporları).

Kullanılabilir istasyonlar harita üzerinde sarı ve kırmızı noktalarla gösterilir.

İstasyonun adını görmek için fareyi noktanın üzerinde gezdirin.

Sonrasında hava gözlem ve tahminlerini görmek için tıklayın.

Haritayı değiştirmek için: yaklaştırmak için siyah artı işaretli yeşil düğmeye ve uzaklaştırmak için de eksi işaretli düğmeye hızla tıklayın; bitişik haritalar için yeşil okları kullanın.


METAR-TAF: